Time;durP1;ratioP1;P1;durP2;ratioP2;P2;SDS_P1;SDS_P2;PMS_P1;PMS_P2;Temp;Humidity;BMP_temperature;BMP_pressure;BME280_temperature;BME280_humidity;BME280_pressure;Samples;Min_cycle;Max_cycle;Signal;HPM_P1;HPM_P2
2021/04/15 00:01:03;;;;;;;;;;;;;;;21.22;30.79;103101.88;2208780;39;116303;-58
2021/04/15 00:02:34;;;;;;;;;;;;;;;21.27;30.43;103103.91;2205334;39;115923;-59
2021/04/15 00:04:06;;;;;;;;;;;;;;;21.26;30.54;103097.44;2209108;39;116137;-55
2021/04/15 00:05:38;;;;;;;;;;;;;;;21.25;30.76;103097.72;2203032;39;115192;-57
2021/04/15 00:07:09;;;;;;;;;;;;;;;21.23;30.37;103100.78;2202333;39;115716;-59
2021/04/15 00:08:40;;;;;;;;;;;;;;;21.26;30.42;103105.00;2211737;39;115539;-60
2021/04/15 00:10:11;;;;;;;;;;;;;;;21.26;30.71;103105.88;2214053;39;114552;-57
2021/04/15 00:11:56;;;;;;;;;;;;;;;21.23;30.75;103095.16;2204774;39;115326;-56
2021/04/15 00:13:30;;;;;;;;;;;;;;;21.20;30.95;103098.50;2203420;39;115647;-57
2021/04/15 00:15:05;;;;;;;;;;;;;;;21.21;30.81;103102.97;2207808;39;115750;-57
2021/04/15 00:16:36;;;;;;;;;;;;;;;21.19;30.74;103105.22;2204729;39;115458;-59
2021/04/15 00:18:07;;;;;;;;;;;;;;;21.19;30.71;103102.41;2198379;39;115669;-57
2021/04/15 00:19:39;;;;;;;;;;;;;;;21.18;30.79;103106.31;2198660;39;114050;-56
2021/04/15 00:21:10;;;;;;;;;;;;;;;21.17;30.63;103099.00;2206548;39;113678;-58
2021/04/15 00:22:41;;;;;;;;;;;;;;;21.17;30.64;103098.13;2211904;39;113752;-58
2021/04/15 00:24:13;;;;;;;;;;;;;;;21.22;30.68;103095.41;2211074;39;113686;-57
2021/04/15 00:25:44;;;;;;;;;;;;;;;21.22;31.06;103101.03;2212749;39;114545;-55
2021/04/15 00:27:24;;;;;;;;;;;;;;;21.21;31.12;103100.16;2202572;39;113903;-58
2021/04/15 00:28:57;;;;;;;;;;;;;;;21.21;31.10;103104.97;2213142;39;115429;-57
2021/04/15 00:30:28;;;;;;;;;;;;;;;21.22;30.99;103106.66;2205246;39;114306;-59
2021/04/15 00:31:59;;;;;;;;;;;;;;;21.20;30.96;103100.47;2207559;39;114116;-58
2021/04/15 00:33:30;;;;;;;;;;;;;;;21.20;31.47;103098.50;2213138;39;113941;-58
2021/04/15 00:35:03;;;;;;;;;;;;;;;21.20;31.07;103101.31;2205363;39;113817;-57
2021/04/15 00:36:34;;;;;;;;;;;;;;;21.20;31.21;103100.47;2206745;39;114026;-56
2021/04/15 00:38:06;;;;;;;;;;;;;;;21.19;31.34;103095.94;2210162;39;113974;-56
2021/04/15 00:39:37;;;;;;;;;;;;;;;21.18;31.37;103094.22;2211478;39;113921;-58
2021/04/15 00:41:09;;;;;;;;;;;;;;;21.19;31.58;103093.13;2209575;39;113969;-57
2021/04/15 00:42:40;;;;;;;;;;;;;;;21.17;31.50;103092.53;2205788;39;115209;-57
2021/04/15 00:44:11;;;;;;;;;;;;;;;21.19;31.43;103095.94;2207942;39;114843;-59
2021/04/15 00:45:43;;;;;;;;;;;;;;;21.18;31.26;103091.41;2211339;39;114954;-57
2021/04/15 00:47:21;;;;;;;;;;;;;;;21.16;31.60;103093.66;2204059;39;115484;-55
2021/04/15 00:48:52;;;;;;;;;;;;;;;21.14;31.54;103088.28;2199154;39;114845;-58
2021/04/15 00:50:29;;;;;;;;;;;;;;;21.16;31.04;103096.47;2208940;39;114301;-56
2021/04/15 00:52:03;;;;;;;;;;;;;;;21.15;31.51;103095.63;2213378;39;114749;-56
2021/04/15 00:53:56;;;;;;;;;;;;;;;21.14;31.22;103090.25;2211046;39;114053;-56
2021/04/15 00:55:28;;;;;;;;;;;;;;;21.13;31.63;103094.16;2210861;39;114873;-57
2021/04/15 00:57:01;;;;;;;;;;;;;;;21.14;31.32;103090.25;2212964;39;115065;-57
2021/04/15 00:58:32;;;;;;;;;;;;;;;21.11;31.60;103102.84;2211593;39;115167;-55
2021/04/15 01:00:04;;;;;;;;;;;;;;;21.12;31.44;103095.25;2212410;39;114772;-58
2021/04/15 01:01:35;;;;;;;;;;;;;;;21.10;31.32;103098.31;2209927;39;114683;-56
2021/04/15 01:03:06;;;;;;;;;;;;;;;21.10;31.54;103097.47;2213864;39;114822;-56
2021/04/15 01:04:38;;;;;;;;;;;;;;;21.11;31.50;103097.22;2207391;39;115568;-57
2021/04/15 01:06:09;;;;;;;;;;;;;;;21.09;31.30;103091.00;2199801;39;115627;-57
2021/04/15 01:07:40;;;;;;;;;;;;;;;21.06;31.32;103082.22;2201590;39;115567;-59
2021/04/15 01:09:12;;;;;;;;;;;;;;;21.08;31.41;103085.63;2208452;39;115884;-56
2021/04/15 01:10:49;;;;;;;;;;;;;;;21.06;31.64;103087.84;2213944;39;116005;-56
2021/04/15 01:12:21;;;;;;;;;;;;;;;21.05;31.46;103083.34;2203865;39;114168;-58
2021/04/15 01:13:55;;;;;;;;;;;;;;;21.05;31.47;103084.19;2209857;39;116216;-58
2021/04/15 01:15:36;;;;;;;;;;;;;;;21.05;31.43;103077.72;2204391;39;114523;-55
2021/04/15 01:17:17;;;;;;;;;;;;;;;21.02;31.46;103089.50;2204838;39;115435;-57
2021/04/15 01:18:57;;;;;;;;;;;;;;;21.05;31.78;103088.97;2209695;39;114613;-61
2021/04/15 01:20:37;;;;;;;;;;;;;;;21.01;31.77;103079.34;2207773;39;115631;-57
2021/04/15 01:22:15;;;;;;;;;;;;;;;21.01;31.65;103085.81;2210460;39;115100;-57
2021/04/15 01:23:56;;;;;;;;;;;;;;;20.82;29.84;103088.06;2207929;39;115848;-57
2021/04/15 01:25:49;;;;;;;;;;;;;;;20.81;31.39;103089.19;2209327;39;115265;-58
2021/04/15 01:27:30;;;;;;;;;;;;;;;20.81;31.67;103094.81;2205613;39;114728;-56
2021/04/15 01:29:10;;;;;;;;;;;;;;;20.80;31.64;103092.28;2208335;39;113991;-59
2021/04/15 01:30:44;;;;;;;;;;;;;;;20.80;31.79;103090.28;2207247;39;113846;-59
2021/04/15 01:32:19;;;;;;;;;;;;;;;20.80;31.64;103083.84;2199277;39;114137;-60
2021/04/15 01:33:53;;;;;;;;;;;;;;;20.82;32.03;103090.03;2206645;39;113917;-56
2021/04/15 01:35:28;;;;;;;;;;;;;;;20.78;31.99;103098.13;2211046;39;113885;-58
2021/04/15 01:37:02;;;;;;;;;;;;;;;20.77;31.69;103090.81;2211390;39;114015;-58
2021/04/15 01:38:36;;;;;;;;;;;;;;;20.80;31.86;103095.06;2217086;39;114134;-59
2021/04/15 01:40:12;;;;;;;;;;;;;;;20.79;32.04;103091.41;2209682;39;114238;-57
2021/04/15 01:41:47;;;;;;;;;;;;;;;20.80;32.07;103081.84;2212264;39;114057;-58
2021/04/15 01:43:21;;;;;;;;;;;;;;;20.78;31.92;103092.50;2209308;39;113731;-58
2021/04/15 01:44:56;;;;;;;;;;;;;;;20.78;31.99;103091.66;2205292;39;114014;-59
2021/04/15 01:46:36;;;;;;;;;;;;;;;20.77;32.09;103085.19;2206750;39;114231;-58
2021/04/15 01:48:10;;;;;;;;;;;;;;;20.77;32.05;103092.75;2217397;39;113921;-58
2021/04/15 01:49:43;;;;;;;;;;;;;;;20.75;32.06;103084.63;2209812;39;115113;-59
2021/04/15 01:51:36;;;;;;;;;;;;;;;20.74;32.67;103088.53;2211864;39;114660;-59
2021/04/15 01:53:10;;;;;;;;;;;;;;;20.75;32.43;103093.03;2208985;39;114937;-57
2021/04/15 01:54:47;;;;;;;;;;;;;;;20.74;32.19;103088.53;2213615;39;115019;-58
2021/04/15 01:56:28;;;;;;;;;;;;;;;20.74;32.20;103094.13;2207537;39;115479;-59
2021/04/15 01:58:02;;;;;;;;;;;;;;;20.73;32.41;103088.78;2205919;39;115123;-60
2021/04/15 01:59:37;;;;;;;;;;;;;;;20.72;32.30;103093.53;2207150;39;114890;-57
2021/04/15 02:01:10;;;;;;;;;;;;;;;20.71;32.36;103091.00;2208841;39;115492;-61
2021/04/15 02:02:44;;;;;;;;;;;;;;;20.72;32.30;103090.72;2211379;39;114735;-57
2021/04/15 02:04:18;;;;;;;;;;;;;;;20.72;32.23;103087.91;2210971;39;115586;-59
2021/04/15 02:05:54;;;;;;;;;;;;;;;20.68;32.70;103094.31;2203712;39;115603;-60
2021/04/15 02:07:28;;;;;;;;;;;;;;;20.64;32.83;103093.97;2205664;39;114595;-57
2021/04/15 02:09:02;;;;;;;;;;;;;;;20.68;32.60;103089.53;2203418;39;114807;-61
2021/04/15 02:10:34;;;;;;;;;;;;;;;20.68;32.29;103088.69;2210977;39;114857;-58
2021/04/15 02:12:10;;;;;;;;;;;;;;;20.67;32.82;103087.00;2205919;39;115805;-58
2021/04/15 02:13:43;;;;;;;;;;;;;;;20.65;32.52;103089.22;2212287;39;115475;-63
2021/04/15 02:15:18;;;;;;;;;;;;;;;20.67;32.30;103087.00;2210794;39;115889;-60
2021/04/15 02:16:52;;;;;;;;;;;;;;;20.62;32.79;103086.94;2204138;39;115609;-59
2021/04/15 02:18:27;;;;;;;;;;;;;;;20.63;32.53;103094.22;2195500;39;116236;-58
2021/04/15 02:19:59;;;;;;;;;;;;;;;20.62;32.54;103089.75;2203704;39;115616;-57
2021/04/15 02:21:40;;;;;;;;;;;;;;;20.62;32.90;103084.97;2214390;39;115548;-62
2021/04/15 02:23:14;;;;;;;;;;;;;;;20.62;32.83;103084.13;2209631;39;116154;-60
2021/04/15 02:24:55;;;;;;;;;;;;;;;20.63;32.43;103088.59;2208254;39;115495;-62
2021/04/15 02:26:31;;;;;;;;;;;;;;;20.59;32.70;103091.09;2206422;39;114660;-58
2021/04/15 02:28:02;;;;;;;;;;;;;;;20.57;32.83;103089.66;2209650;39;115664;-61
2021/04/15 02:29:35;;;;;;;;;;;;;;;20.56;33.00;103090.75;2209379;39;116267;-59
2021/04/15 02:31:16;;;;;;;;;;;;;;;20.52;33.14;103096.03;2210727;39;115647;-59
2021/04/15 02:32:51;;;;;;;;;;;;;;;20.54;32.90;103099.44;2208261;39;114685;-60
2021/04/15 02:34:32;;;;;;;;;;;;;;;20.54;32.95;103098.56;2209710;39;115577;-59
2021/04/15 02:36:04;;;;;;;;;;;;;;;20.54;32.91;103095.75;2208599;39;113740;-61
2021/04/15 02:37:41;;;;;;;;;;;;;;;20.53;32.73;103097.75;2204005;39;113971;-59
2021/04/15 02:39:17;;;;;;;;;;;;;;;20.49;33.04;103090.91;2208133;39;114188;-58
2021/04/15 02:40:52;;;;;;;;;;;;;;;20.49;32.77;103088.09;2210304;39;113620;-61
2021/04/15 02:42:27;;;;;;;;;;;;;;;20.50;33.29;103092.63;2203012;39;113761;-59
2021/04/15 02:44:06;;;;;;;;;;;;;;;20.50;33.18;103091.78;2208637;39;113618;-60
2021/04/15 02:45:42;;;;;;;;;;;;;;;20.47;33.37;103095.97;2204338;39;114193;-59
2021/04/15 02:47:17;;;;;;;;;;;;;;;20.44;32.86;103090.84;2209986;39;113708;-60
2021/04/15 02:48:49;;;;;;;;;;;;;;;20.44;33.58;103098.44;2204144;39;114252;-58
2021/04/15 02:50:22;;;;;;;;;;;;;;;20.46;33.57;103099.00;2201863;39;114027;-57
2021/04/15 02:51:56;;;;;;;;;;;;;;;20.46;33.38;103088.63;2213916;39;113941;-60
2021/04/15 02:53:31;;;;;;;;;;;;;;;20.42;33.37;103093.91;2205447;39;114183;-57
2021/04/15 02:55:07;;;;;;;;;;;;;;;20.43;33.35;103097.56;2206265;39;113897;-60
2021/04/15 02:56:42;;;;;;;;;;;;;;;20.43;33.42;103100.38;2213889;39;113687;-56
2021/04/15 02:58:32;;;;;;;;;;;;;;;20.41;33.73;103100.63;2210954;39;115149;-59
2021/04/15 03:00:05;;;;;;;;;;;;;;;20.41;33.47;103091.34;2210206;39;114909;-58
2021/04/15 03:01:39;;;;;;;;;;;;;;;20.40;33.77;103104.53;2210048;39;114779;-57
2021/04/15 03:03:12;;;;;;;;;;;;;;;20.38;33.46;103097.50;2210550;39;114739;-58
2021/04/15 03:04:49;;;;;;;;;;;;;;;20.36;33.85;103102.50;2210452;39;114785;-57
2021/04/15 03:06:23;;;;;;;;;;;;;;;20.36;33.62;103102.50;2210625;39;114785;-59
2021/04/15 03:07:58;;;;;;;;;;;;;;;20.36;33.34;103094.06;2210015;39;114217;-57
2021/04/15 03:09:31;;;;;;;;;;;;;;;20.35;33.64;103107.25;2211463;39;114921;-57
2021/04/15 03:11:06;;;;;;;;;;;;;;;20.35;33.38;103096.03;2205234;39;115667;-57
2021/04/15 03:12:40;;;;;;;;;;;;;;;20.32;33.50;103102.16;2209639;39;114849;-60
2021/04/15 03:14:13;;;;;;;;;;;;;;;20.32;33.83;103096.53;2207419;39;114785;-58
2021/04/15 03:15:49;;;;;;;;;;;;;;;20.33;33.60;103091.78;2205343;39;115642;-60
2021/04/15 03:17:22;;;;;;;;;;;;;;;20.28;33.84;103095.31;2209032;39;114725;-57
2021/04/15 03:18:54;;;;;;;;;;;;;;;20.31;33.66;103099.59;2217116;39;115651;-59
2021/04/15 03:20:28;;;;;;;;;;;;;;;20.30;33.50;103097.91;2211050;39;116150;-57
2021/04/15 03:22:03;;;;;;;;;;;;;;;20.30;33.36;103097.91;2207285;39;115443;-57
2021/04/15 03:23:35;;;;;;;;;;;;;;;20.28;33.54;103100.94;2212650;39;115581;-56
2021/04/15 03:25:07;;;;;;;;;;;;;;;20.27;33.88;103098.38;2215045;39;115499;-59
2021/04/15 03:26:38;;;;;;;;;;;;;;;20.27;33.68;103098.38;2210134;39;115527;-60
2021/04/15 03:28:13;;;;;;;;;;;;;;;20.25;33.60;103098.66;2210709;39;115601;-56
2021/04/15 03:29:54;;;;;;;;;;;;;;;20.24;34.09;103096.09;2209643;39;115440;-58
2021/04/15 03:31:42;;;;;;;;;;;;;;;20.24;34.06;103088.53;2201105;39;115416;-61
2021/04/15 03:33:19;;;;;;;;;;;;;;;20.24;33.76;103099.75;2204389;39;115504;-60
2021/04/15 03:35:02;;;;;;;;;;;;;;;20.24;33.76;103096.09;2203322;39;115536;-60
2021/04/15 03:36:36;;;;;;;;;;;;;;;20.23;33.72;103097.19;2196452;39;116013;-60
2021/04/15 03:38:17;;;;;;;;;;;;;;;20.22;33.88;103096.31;2208076;39;116211;-55
2021/04/15 03:39:51;;;;;;;;;;;;;;;20.19;33.82;103096.84;2211008;39;115197;-59
2021/04/15 03:41:26;;;;;;;;;;;;;;;20.17;33.72;103093.44;2210889;39;115759;-59
2021/04/15 03:42:59;;;;;;;;;;;;;;;20.18;33.66;103094.28;2202431;39;113920;-58
2021/04/15 03:44:38;;;;;;;;;;;;;;;20.18;33.74;103099.91;2197229;39;113908;-60
2021/04/15 03:46:15;;;;;;;;;;;;;;;20.17;33.80;103096.22;2205447;39;114031;-58
2021/04/15 03:47:51;;;;;;;;;;;;;;;20.17;33.90;103095.41;2201909;39;114669;-57
2021/04/15 03:49:27;;;;;;;;;;;;;;;20.15;33.87;103090.03;2210086;39;113787;-57
2021/04/15 03:51:01;;;;;;;;;;;;;;;20.16;33.93;103094.56;2212875;39;113869;-60
2021/04/15 03:52:36;;;;;;;;;;;;;;;20.12;33.75;103092.50;2209953;39;113676;-58
2021/04/15 03:54:11;;;;;;;;;;;;;;;20.12;33.88;103093.38;2203817;39;114477;-57
2021/04/15 03:55:44;;;;;;;;;;;;;;;20.16;34.17;103090.91;2209461;39;114154;-60
2021/04/15 03:57:17;;;;;;;;;;;;;;;20.19;34.47;103091.22;2204122;39;114360;-59
2021/04/15 03:58:53;;;;;;;;;;;;;;;20.24;34.68;103090.47;2209029;39;113754;-57
2021/04/15 04:00:28;;;;;;;;;;;;;;;20.24;35.03;103096.94;2215459;39;113853;-59
2021/04/15 04:02:01;;;;;;;;;;;;;;;20.28;34.94;103095.31;2210073;39;113882;-57
2021/04/15 04:03:34;;;;;;;;;;;;;;;20.30;34.84;103084.75;2214194;39;113818;-57
2021/04/15 04:05:07;;;;;;;;;;;;;;;20.34;34.83;103091.53;2206086;39;114086;-59
2021/04/15 04:06:41;;;;;;;;;;;;;;;20.36;34.98;103096.88;2205947;39;115258;-59
2021/04/15 04:08:22;;;;;;;;;;;;;;;20.40;34.99;103095.25;2203721;39;115455;-61
2021/04/15 04:09:57;;;;;;;;;;;;;;;20.42;35.04;103099.53;2211905;39;114745;-56
2021/04/15 04:11:31;;;;;;;;;;;;;;;20.46;35.02;103093.38;2217603;39;114184;-58
2021/04/15 04:13:15;;;;;;;;;;;;;;;20.48;35.24;103089.25;2217234;39;114868;-58
2021/04/15 04:14:54;;;;;;;;;;;;;;;20.54;35.39;103101.38;2204138;39;115856;-60
2021/04/15 04:16:25;;;;;;;;;;;;;;;20.58;35.30;103097.81;2202434;39;114816;-58
2021/04/15 04:17:59;;;;;;;;;;;;;;;20.60;35.49;103095.59;2198446;39;115445;-56
2021/04/15 04:19:40;;;;;;;;;;;;;;;20.66;35.23;103088.97;2199924;39;114049;-57
2021/04/15 04:21:20;;;;;;;;;;;;;;;20.69;34.81;103094.06;2202454;39;114911;-56
2021/04/15 04:22:54;;;;;;;;;;;;;;;20.75;34.88;103093.03;2204025;39;113941;-60
2021/04/15 04:24:32;;;;;;;;;;;;;;;20.79;34.92;103102.66;2205925;39;114567;-60
2021/04/15 04:26:12;;;;;;;;;;;;;;;20.84;34.75;103099.06;2202819;39;115126;-59
2021/04/15 04:27:52;;;;;;;;;;;;;;;20.88;34.63;103091.81;2207332;39;114929;-61
2021/04/15 04:29:24;;;;;;;;;;;;;;;20.92;34.18;103101.44;2204146;39;115619;-60
2021/04/15 04:31:02;;;;;;;;;;;;;;;20.97;34.64;103095.03;2205375;39;115533;-59
2021/04/15 04:32:34;;;;;;;;;;;;;;;21.01;34.74;103104.66;2203807;39;115508;-60
2021/04/15 04:34:06;;;;;;;;;;;;;;;21.06;34.38;103094.34;2196257;39;116334;-58
2021/04/15 04:35:39;;;;;;;;;;;;;;;21.09;34.16;103099.41;2207634;39;115409;-61
2021/04/15 04:37:13;;;;;;;;;;;;;;;21.13;34.01;103094.16;2208685;39;116056;-61
2021/04/15 04:38:45;;;;;;;;;;;;;;;21.16;34.50;103097.31;2200404;39;115810;-61
2021/04/15 04:40:19;;;;;;;;;;;;;;;21.20;34.15;103092.88;2200425;39;116041;-58
2021/04/15 04:41:56;;;;;;;;;;;;;;;21.22;34.10;103093.44;2202853;39;115286;-58
2021/04/15 04:43:32;;;;;;;;;;;;;;;21.28;33.97;103098.03;2207348;39;115413;-61
2021/04/15 04:45:04;;;;;;;;;;;;;;;21.34;34.17;103101.78;2202809;39;114599;-59
2021/04/15 04:46:35;;;;;;;;;;;;;;;21.37;33.89;103098.41;2204667;39;115952;-60
2021/04/15 04:48:07;;;;;;;;;;;;;;;21.41;33.96;103101.56;2201568;39;115714;-59
2021/04/15 04:49:40;;;;;;;;;;;;;;;21.43;33.82;103097.38;2205875;39;115464;-62
2021/04/15 04:51:17;;;;;;;;;;;;;;;21.47;34.03;103101.38;2209437;39;114110;-61
2021/04/15 04:52:48;;;;;;;;;;;;;;;21.51;33.91;103099.72;2207446;39;114401;-60
2021/04/15 04:54:20;;;;;;;;;;;;;;;21.54;33.87;103107.63;2204389;39;114291;-60
2021/04/15 04:55:57;;;;;;;;;;;;;;;21.58;33.39;103105.13;2204044;39;113802;-60
2021/04/15 04:57:30;;;;;;;;;;;;;;;21.61;33.72;103097.03;2202838;39;113640;-59
2021/04/15 04:59:03;;;;;;;;;;;;;;;21.65;33.39;103108.63;2201437;39;113754;-61
2021/04/15 05:00:36;;;;;;;;;;;;;;;21.68;33.47;103110.88;2200616;39;114160;-57
2021/04/15 05:02:07;;;;;;;;;;;;;;;21.72;33.88;103106.44;2200124;39;113869;-59
2021/04/15 05:03:38;;;;;;;;;;;;;;;21.76;33.38;103112.41;2201655;39;113771;-59
2021/04/15 05:05:17;;;;;;;;;;;;;;;21.78;33.88;103110.16;2204388;39;113773;-61
2021/04/15 05:06:48;;;;;;;;;;;;;;;21.82;33.42;103111.31;2205969;39;114632;-60
2021/04/15 05:08:23;;;;;;;;;;;;;;;21.85;33.43;103116.44;2204449;39;114077;-59
2021/04/15 05:09:56;;;;;;;;;;;;;;;21.88;33.86;103115.91;2203085;39;113705;-57
2021/04/15 05:11:29;;;;;;;;;;;;;;;21.90;33.78;103116.47;2207033;39;114036;-57
2021/04/15 05:13:10;;;;;;;;;;;;;;;21.92;33.60;103109.47;2199590;39;114604;-57
2021/04/15 05:14:41;;;;;;;;;;;;;;;21.96;33.58;103112.63;2210028;39;117097;-59
2021/04/15 05:16:12;;;;;;;;;;;;;;;21.99;33.28;103117.72;2211085;39;115078;-59
2021/04/15 05:17:44;;;;;;;;;;;;;;;22.01;33.51;103116.38;2210777;39;114552;-58
2021/04/15 05:19:16;;;;;;;;;;;;;;;22.04;34.11;103121.44;2211325;39;115202;-59
2021/04/15 05:20:48;;;;;;;;;;;;;;;22.08;33.57;103121.75;2210902;39;114818;-61
2021/04/15 05:22:24;;;;;;;;;;;;;;;22.10;33.53;103117.59;2210492;39;114822;-60
2021/04/15 05:24:00;;;;;;;;;;;;;;;22.13;33.17;103119.00;2209494;39;114812;-60
2021/04/15 05:25:35;;;;;;;;;;;;;;;22.16;33.54;103124.13;2211254;39;115441;-57
2021/04/15 05:27:07;;;;;;;;;;;;;;;22.18;32.92;103124.69;2214311;39;114937;-58
2021/04/15 05:28:39;;;;;;;;;;;;;;;22.23;33.43;103123.88;2201459;39;115117;-58
2021/04/15 05:30:17;;;;;;;;;;;;;;;22.24;32.91;103119.97;2203736;39;114790;-57
2021/04/15 05:31:50;;;;;;;;;;;;;;;22.21;33.01;103120.50;2200242;39;114852;-57
2021/04/15 05:33:26;;;;;;;;;;;;;;;22.21;32.64;103128.94;2204303;39;115179;-60
2021/04/15 05:34:59;;;;;;;;;;;;;;;22.24;32.78;103122.78;2201143;39;115519;-57
2021/04/15 05:36:35;;;;;;;;;;;;;;;22.26;32.65;103124.19;2208834;39;117707;-57
2021/04/15 05:38:07;;;;;;;;;;;;;;;22.30;32.48;103124.53;2205653;39;115752;-56
2021/04/15 05:39:38;;;;;;;;;;;;;;;22.32;32.23;103128.78;2210210;39;115075;-58
2021/04/15 05:41:17;;;;;;;;;;;;;;;22.35;32.61;103133.84;2210732;39;115494;-61
2021/04/15 05:42:52;;;;;;;;;;;;;;;22.38;32.37;103127.72;2210437;39;115847;-60
2021/04/15 05:44:33;;;;;;;;;;;;;;;22.41;32.22;103127.16;2210440;39;115772;-61
2021/04/15 05:46:07;;;;;;;;;;;;;;;22.43;32.45;103133.38;2210213;39;115436;-61
2021/04/15 05:47:48;;;;;;;;;;;;;;;22.45;32.39;103139.59;2213026;39;115155;-59
2021/04/15 05:49:21;;;;;;;;;;;;;;;22.48;32.50;103132.59;2216117;39;115998;-58
2021/04/15 05:50:54;;;;;;;;;;;;;;;22.49;32.19;103140.75;2205451;39;115468;-59
2021/04/15 05:52:28;;;;;;;;;;;;;;;22.53;32.43;103129.81;2210732;39;115599;-57
2021/04/15 05:54:04;;;;;;;;;;;;;;;22.56;32.30;103146.16;2215776;39;116060;-57
2021/04/15 05:55:44;;;;;;;;;;;;;;;22.57;32.36;103143.09;2217655;39;115449;-61
2021/04/15 05:57:16;;;;;;;;;;;;;;;22.59;32.35;103137.16;2213682;39;115518;-59
2021/04/15 05:58:54;;;;;;;;;;;;;;;22.62;32.30;103143.09;2209532;39;113720;-60
2021/04/15 06:00:32;;;;;;;;;;;;;;;22.66;32.72;103148.22;2205019;39;113594;-61
2021/04/15 06:02:13;;;;;;;;;;;;;;;22.69;32.53;103147.69;2209445;39;113868;-58
2021/04/15 06:03:56;;;;;;;;;;;;;;;22.71;32.67;103149.16;2210005;39;113604;-57
2021/04/15 06:05:30;;;;;;;;;;;;;;;22.73;32.47;103155.34;2205699;39;113845;-59
2021/04/15 06:07:03;;;;;;;;;;;;;;;22.75;32.37;103153.13;2205639;39;114086;-58
2021/04/15 06:08:36;;;;;;;;;;;;;;;22.78;32.59;103148.91;2199964;39;113865;-57
2021/04/15 06:10:08;;;;;;;;;;;;;;;22.79;32.15;103148.66;2204323;39;113592;-59
2021/04/15 06:11:43;;;;;;;;;;;;;;;22.81;32.26;103154.00;2208136;39;114032;-59
2021/04/15 06:13:19;;;;;;;;;;;;;;;22.82;32.22;103150.91;2201939;39;113883;-57
2021/04/15 06:14:53;;;;;;;;;;;;;;;22.83;32.25;103152.63;2209027;39;113698;-60
2021/04/15 06:16:30;;;;;;;;;;;;;;;22.85;32.42;103156.00;2210784;39;114349;-60
2021/04/15 06:18:11;;;;;;;;;;;;;;;22.88;32.29;103155.47;2210524;39;115609;-56
2021/04/15 06:19:44;;;;;;;;;;;;;;;22.91;32.35;103156.91;2213910;39;113932;-57
2021/04/15 06:21:18;;;;;;;;;;;;;;;22.92;32.30;103155.78;2210126;39;115127;-60
2021/04/15 06:22:51;;;;;;;;;;;;;;;22.95;32.06;103155.22;2204337;39;115318;-60
2021/04/15 06:24:29;;;;;;;;;;;;;;;22.96;32.19;103152.16;2208925;39;115198;-58
2021/04/15 06:26:00;;;;;;;;;;;;;;;22.99;32.48;103153.56;2210568;39;115466;-58
2021/04/15 06:27:31;;;;;;;;;;;;;;;23.01;31.95;103154.16;2210067;39;114832;-60
2021/04/15 06:29:06;;;;;;;;;;;;;;;23.02;32.46;103155.84;2208102;39;114753;-60
2021/04/15 06:30:42;;;;;;;;;;;;;;;23.04;32.15;103154.44;2208641;39;115582;-57
2021/04/15 06:32:17;;;;;;;;;;;;;;;23.05;32.23;103153.34;2212444;39;115262;-59
2021/04/15 06:33:48;;;;;;;;;;;;;;;23.08;32.25;103151.09;2211991;39;115367;-59
2021/04/15 06:35:21;;;;;;;;;;;;;;;23.09;32.23;103152.78;2213186;39;114883;-56
2021/04/15 06:36:55;;;;;;;;;;;;;;;23.10;32.23;103151.66;2202510;39;115393;-58
2021/04/15 06:38:33;;;;;;;;;;;;;;;23.12;31.99;103155.94;2206533;39;114781;-61
2021/04/15 06:40:14;;;;;;;;;;;;;;;23.14;32.06;103148.03;2204852;39;115277;-59
2021/04/15 06:41:54;;;;;;;;;;;;;;;23.15;32.02;103149.72;2209841;39;114881;-59
2021/04/15 06:43:34;;;;;;;;;;;;;;;23.16;31.98;103162.72;2210817;39;115455;-62
2021/04/15 06:45:17;;;;;;;;;;;;;;;23.16;31.82;103157.09;2211122;39;117455;-58
2021/04/15 06:47:01;;;;;;;;;;;;;;;23.16;31.90;103156.22;2209284;39;115883;-61
2021/04/15 06:48:49;;;;;;;;;;;;;;;23.16;31.84;103159.91;2205717;39;116160;-57
2021/04/15 06:50:25;;;;;;;;;;;;;;;23.17;31.85;103157.94;2205896;39;116110;-58
2021/04/15 06:52:00;;;;;;;;;;;;;;;23.17;31.85;103157.94;2210005;39;115915;-58
2021/04/15 06:53:37;;;;;;;;;;;;;;;23.16;31.84;103153.41;2208438;39;115563;-62
2021/04/15 06:55:11;;;;;;;;;;;;;;;23.14;31.85;103158.47;2206222;39;115680;-59
2021/04/15 06:56:52;;;;;;;;;;;;;;;23.15;31.93;103160.16;2209306;39;115508;-61
2021/04/15 06:58:30;;;;;;;;;;;;;;;23.14;31.97;103153.66;2205718;39;115632;-60
2021/04/15 07:00:10;;;;;;;;;;;;;;;23.14;32.02;103162.13;2208569;39;115576;-58
2021/04/15 07:01:51;;;;;;;;;;;;;;;23.14;32.13;103164.94;2205925;39;115731;-60
2021/04/15 07:03:34;;;;;;;;;;;;;;;23.12;32.17;103160.72;2206899;39;115581;-58
2021/04/15 07:05:11;;;;;;;;;;;;;;;23.11;31.91;103159.88;2210180;39;116119;-56
2021/04/15 07:06:47;;;;;;;;;;;;;;;23.12;32.07;103157.91;2210076;39;113914;-60
2021/04/15 07:08:28;;;;;;;;;;;;;;;23.10;32.25;103160.97;2212542;39;113902;-57
2021/04/15 07:10:08;;;;;;;;;;;;;;;23.09;32.13;103158.41;2212745;39;113919;-56
2021/04/15 07:11:46;;;;;;;;;;;;;;;23.09;32.07;103172.53;2206080;39;113686;-57
2021/04/15 07:13:26;;;;;;;;;;;;;;;23.06;32.31;103171.09;2202884;39;113654;-60
2021/04/15 07:15:01;;;;;;;;;;;;;;;23.04;32.15;103162.06;2206015;39;113815;-59
2021/04/15 07:16:34;;;;;;;;;;;;;;;23.04;32.25;103168.56;2209586;39;113880;-57
2021/04/15 07:18:17;;;;;;;;;;;;;;;23.05;32.37;103166.59;2205846;39;113810;-60
2021/04/15 07:19:48;;;;;;;;;;;;;;;23.03;32.69;103168.84;2209722;39;113747;-57
2021/04/15 07:21:27;;;;;;;;;;;;;;;23.01;33.03;103162.63;2213295;39;114167;-56
2021/04/15 07:23:06;;;;;;;;;;;;;;;22.99;33.04;103157.22;2212355;39;113771;-59
2021/04/15 07:24:38;;;;;;;;;;;;;;;22.99;32.98;103164.84;2209085;39;113988;-58
2021/04/15 07:26:19;;;;;;;;;;;;;;;22.97;33.09;103162.31;2213036;39;113847;-57
2021/04/15 07:28:00;;;;;;;;;;;;;;;22.97;33.08;103161.47;2215092;39;113785;-60
2021/04/15 07:29:46;;;;;;;;;;;;;;;22.96;32.90;103160.59;2217739;39;114135;-57
2021/04/15 07:31:24;;;;;;;;;;;;;;;22.95;33.02;103166.50;2213242;39;114710;-61
2021/04/15 07:32:55;;;;;;;;;;;;;;;22.93;33.14;103163.13;2211944;39;113825;-59
2021/04/15 07:34:26;;;;;;;;;;;;;;;22.93;33.29;103174.41;2215428;39;114714;-60
2021/04/15 07:35:59;;;;;;;;;;;;;;;22.90;33.39;103158.84;2210791;39;114914;-58
2021/04/15 07:37:40;;;;;;;;;;;;;;;22.89;33.53;103162.81;2215776;39;114986;-59
2021/04/15 07:39:20;;;;;;;;;;;;;;;22.88;33.44;103160.25;2211725;39;114769;-57
2021/04/15 07:40:57;;;;;;;;;;;;;;;22.86;33.32;103154.03;2214320;39;114794;-56
2021/04/15 07:42:38;;;;;;;;;;;;;;;22.85;33.34;103158.81;2211325;39;115708;-60
2021/04/15 07:44:10;;;;;;;;;;;;;;;22.83;33.43;103157.41;2200578;39;114695;-61
2021/04/15 07:45:51;;;;;;;;;;;;;;;22.82;33.55;103155.69;2214447;39;113919;-56
2021/04/15 07:47:30;;;;;;;;;;;;;;;22.81;33.56;103154.00;2213533;39;114793;-58
2021/04/15 07:49:17;;;;;;;;;;;;;;;22.78;33.67;103154.53;2203760;39;114785;-57
2021/04/15 07:51:02;;;;;;;;;;;;;;;22.75;33.83;103167.22;2207543;39;114750;-58
2021/04/15 07:52:43;;;;;;;;;;;;;;;22.76;33.46;103153.97;2217496;39;114921;-59
2021/04/15 07:54:14;;;;;;;;;;;;;;;22.75;33.44;103155.09;2208225;39;114701;-57
2021/04/15 07:55:46;;;;;;;;;;;;;;;22.74;33.62;103157.06;2215419;39;114794;-58
2021/04/15 07:57:17;;;;;;;;;;;;;;;22.74;33.53;103157.06;2210720;39;115835;-59
2021/04/15 07:59:01;;;;;;;;;;;;;;;22.73;33.52;103157.31;2214413;39;115651;-59
2021/04/15 08:00:52;;;;;;;;;;;;;;;22.75;33.73;103155.94;2212715;39;115885;-57
2021/04/15 08:02:33;;;;;;;;;;;;;;;22.76;33.79;103160.44;2206453;39;116375;-61
2021/04/15 08:04:13;;;;;;;;;;;;;;;22.78;33.58;103158.22;2208032;39;115790;-57
2021/04/15 08:05:59;;;;;;;;;;;;;;;22.80;33.86;103157.97;2211071;39;115556;-60